createdAt,value
2022-11-15T00:00:37.421Z,59.5
2022-11-15T00:01:38.483Z,59.7
2022-11-15T00:02:39.625Z,59.7
2022-11-15T00:03:41.601Z,59.9
2022-11-15T00:04:43.520Z,59.9
2022-11-15T00:05:45.497Z,59.9
2022-11-15T00:06:47.531Z,59.7
2022-11-15T00:07:55.410Z,59.6
2022-11-15T00:08:51.480Z,59.6
2022-11-15T00:09:52.405Z,59.8
2022-11-15T00:10:53.385Z,59.6
2022-11-15T00:11:55.681Z,59.5
2022-11-15T00:12:57.387Z,58.9
2022-11-15T00:13:58.601Z,59
2022-11-15T00:15:00.670Z,58.9
2022-11-15T00:16:02.609Z,58.8
2022-11-15T00:17:04.714Z,58.7
2022-11-15T00:18:06.789Z,58.1
2022-11-15T00:19:09.203Z,57.9
2022-11-15T00:20:10.503Z,57.6
2022-11-15T00:21:12.621Z,56.5
2022-11-15T00:22:15.080Z,56.9
2022-11-15T00:23:16.501Z,56.9
2022-11-15T00:24:19.340Z,56.9
2022-11-15T00:25:20.662Z,56.9
2022-11-15T00:26:23.496Z,56.9
2022-11-15T00:27:25.701Z,56.8
2022-11-15T00:28:27.862Z,56.9
2022-11-15T00:29:29.638Z,56.9
2022-11-15T00:30:32.059Z,57.2
2022-11-15T00:31:34.028Z,57.4
2022-11-15T00:32:35.651Z,57.5
2022-11-15T00:33:37.433Z,57.8
2022-11-15T00:34:38.469Z,57.9
2022-11-15T00:35:39.897Z,57.9
2022-11-15T00:36:41.626Z,58.1
2022-11-15T00:37:43.740Z,58.2
2022-11-15T00:38:45.493Z,58.2
2022-11-15T00:39:47.680Z,58.3
2022-11-15T00:40:49.600Z,58.1
2022-11-15T00:41:51.603Z,57.5
2022-11-15T00:42:53.513Z,58
2022-11-15T00:43:56.161Z,58.3
2022-11-15T00:44:57.460Z,58.2
2022-11-15T00:45:58.462Z,58.3
2022-11-15T00:46:59.460Z,58.1
2022-11-15T00:48:00.441Z,58.2
2022-11-15T00:49:01.962Z,58.3
2022-11-15T00:50:03.581Z,58.4
2022-11-15T00:51:06.361Z,58.2
2022-11-15T00:52:07.544Z,58.3
2022-11-15T00:53:09.680Z,58.2
2022-11-15T00:54:11.558Z,58.2
2022-11-15T00:55:13.644Z,58.1
2022-11-15T00:56:15.660Z,57.9
2022-11-15T00:57:17.615Z,57.7
2022-11-15T00:58:19.529Z,57.4
2022-11-15T00:59:21.402Z,57.1
2022-11-15T01:00:22.520Z,57
2022-11-15T01:01:24.685Z,56.9
2022-11-15T01:02:26.603Z,56.9
2022-11-15T01:03:28.907Z,56.9
2022-11-15T01:04:30.565Z,56.9
2022-11-15T01:05:32.435Z,56.7
2022-11-15T01:06:33.400Z,56.6
2022-11-15T01:07:34.492Z,56.5
2022-11-15T01:08:35.413Z,56.5
2022-11-15T01:09:37.221Z,56.5
2022-11-15T01:10:38.940Z,56.6
2022-11-15T01:11:40.620Z,57
2022-11-15T01:12:42.560Z,57
2022-11-15T01:13:44.601Z,56.9
2022-11-15T01:14:46.540Z,56.2
2022-11-15T01:15:48.660Z,56
2022-11-15T01:16:50.512Z,55.8
2022-11-15T01:17:52.600Z,55.8
2022-11-15T01:18:54.560Z,55.9
2022-11-15T01:19:56.583Z,56
2022-11-15T01:20:58.741Z,56.3
2022-11-15T01:22:00.440Z,56.6
2022-11-15T01:23:01.503Z,56.7
2022-11-15T01:24:03.360Z,56.7
2022-11-15T01:25:04.460Z,56.6
2022-11-15T01:26:05.858Z,56.7
2022-11-15T01:27:08.736Z,57
2022-11-15T01:28:10.564Z,57.2
2022-11-15T01:29:13.000Z,57.3
2022-11-15T01:30:14.552Z,57.5
2022-11-15T01:31:16.439Z,57.4
2022-11-15T01:32:17.380Z,57.4
2022-11-15T01:33:18.805Z,57.1
2022-11-15T01:34:20.578Z,57.3
2022-11-15T01:35:22.585Z,57.4
2022-11-15T01:36:24.602Z,57.6
2022-11-15T01:37:26.780Z,57.3
2022-11-15T01:38:28.615Z,57.5
2022-11-15T01:39:30.460Z,57.5
2022-11-15T01:40:31.459Z,57.4
2022-11-15T01:41:32.383Z,57.2
2022-11-15T01:42:33.480Z,57.2
2022-11-15T01:43:34.704Z,57.3
2022-11-15T01:44:35.412Z,57.4
2022-11-15T01:45:36.401Z,57.4
2022-11-15T01:46:38.080Z,57.5
2022-11-15T01:47:39.622Z,57.1
2022-11-15T01:48:41.785Z,57.9
2022-11-15T01:49:43.679Z,58
2022-11-15T01:50:45.605Z,58
2022-11-15T01:51:47.420Z,57.9
2022-11-15T01:52:48.461Z,57.7
2022-11-15T01:53:49.744Z,57.7
2022-11-15T01:54:51.888Z,57.7
2022-11-15T01:55:53.528Z,57.6
2022-11-15T01:56:54.780Z,57.3
2022-11-15T01:57:57.041Z,57.3
2022-11-15T01:58:58.664Z,57.3
2022-11-15T02:00:01.039Z,57.3
2022-11-15T02:01:02.958Z,57.3
2022-11-15T02:02:04.540Z,57.2
2022-11-15T02:03:06.747Z,57.1
2022-11-15T02:06:05.924Z,56.9
2022-11-15T02:07:07.548Z,56.7
2022-11-15T02:08:08.452Z,57
2022-11-15T02:09:09.554Z,57.1
2022-11-15T02:10:11.653Z,57.3
2022-11-15T02:11:13.633Z,57.6
2022-11-15T02:12:15.696Z,57.7
2022-11-15T02:13:17.793Z,57.6
2022-11-15T02:14:19.453Z,56.7
2022-11-15T02:15:20.417Z,57.2
2022-11-15T02:16:21.830Z,57.2
2022-11-15T02:17:23.447Z,57.2
2022-11-15T02:18:24.434Z,57.3
2022-11-15T02:19:25.494Z,57.3
2022-11-15T02:20:26.513Z,57.5
2022-11-15T02:21:27.468Z,57.5
2022-11-15T02:22:28.453Z,57.2
2022-11-15T02:23:29.895Z,57.2
2022-11-15T02:24:31.335Z,57
2022-11-15T02:25:32.601Z,57.1
2022-11-15T02:26:34.403Z,57.1
2022-11-15T02:27:35.733Z,57.1
2022-11-15T02:28:38.353Z,57.1
2022-11-15T02:29:39.593Z,57.2
2022-11-15T02:30:41.624Z,57.1
2022-11-15T02:31:43.435Z,57.2
2022-11-15T02:32:44.936Z,57.3
2022-11-15T02:33:46.389Z,57.1
2022-11-15T02:34:47.802Z,56.3
2022-11-15T02:35:49.493Z,56.1
2022-11-15T02:36:50.657Z,56.6
2022-11-15T02:37:52.493Z,56.6
2022-11-15T02:38:53.583Z,56.6
2022-11-15T02:39:55.605Z,56.7
2022-11-15T02:40:58.162Z,56.8
2022-11-15T02:41:59.594Z,56.8
2022-11-15T02:43:05.694Z,56.9
2022-11-15T02:44:03.576Z,57
2022-11-15T02:45:06.053Z,56.8
2022-11-15T02:46:07.453Z,56.6
2022-11-15T02:47:09.375Z,56.3
2022-11-15T02:48:11.736Z,56.2
2022-11-15T02:49:13.733Z,55.8
2022-11-15T02:50:15.993Z,55.9
2022-11-15T02:51:17.632Z,56
2022-11-15T02:52:19.659Z,56.2
2022-11-15T02:53:21.555Z,56.4
2022-11-15T02:54:22.533Z,56.7
2022-11-15T02:55:23.614Z,56.3
2022-11-15T02:56:25.893Z,56.9
2022-11-15T02:57:27.777Z,56.9
2022-11-15T02:58:29.583Z,57
2022-11-15T02:59:31.714Z,57.2
2022-11-15T03:00:33.720Z,57.7
2022-11-15T03:01:35.612Z,58.1
2022-11-15T03:02:37.522Z,58.1
2022-11-15T03:03:38.452Z,58.3
2022-11-15T03:04:39.514Z,58.1
2022-11-15T03:05:40.652Z,57.3
2022-11-15T03:06:42.532Z,57.5
2022-11-15T03:07:43.529Z,57.7
2022-11-15T03:08:44.593Z,58.1
2022-11-15T03:09:46.613Z,58.2
2022-11-15T03:10:48.633Z,58.2
2022-11-15T03:11:50.920Z,58.1
2022-11-15T03:12:52.481Z,57.7
2022-11-15T03:13:53.553Z,57.3
2022-11-15T03:14:54.552Z,57.1
2022-11-15T03:15:55.617Z,57.8
2022-11-15T03:16:57.557Z,58.5
2022-11-15T03:17:58.552Z,58.7
2022-11-15T03:19:00.657Z,58.5
2022-11-15T03:20:02.933Z,58.3
2022-11-15T03:21:04.552Z,58.1
2022-11-15T03:22:06.312Z,57.9
2022-11-15T03:23:07.596Z,57.5
2022-11-15T03:24:08.531Z,57
2022-11-15T03:25:09.612Z,56.7
2022-11-15T03:26:11.533Z,56.8
2022-11-15T03:27:12.492Z,57
2022-11-15T03:28:13.634Z,57.3
2022-11-15T03:29:16.020Z,57.8
2022-11-15T03:30:18.080Z,58.1
2022-11-15T03:31:19.632Z,58.3
2022-11-15T03:32:21.531Z,58.2
2022-11-15T03:33:22.553Z,58
2022-11-15T03:34:23.555Z,57.7
2022-11-15T03:35:24.562Z,57.6
2022-11-15T03:36:26.673Z,57.6
2022-11-15T03:37:28.852Z,57.6
2022-11-15T03:38:31.239Z,57.8
2022-11-15T03:39:32.653Z,57.8
2022-11-15T03:40:34.753Z,57.7
2022-11-15T03:41:36.712Z,57.7
2022-11-15T03:42:38.700Z,57.5
2022-11-15T03:43:41.113Z,57.5
2022-11-15T03:44:42.572Z,57.5
2022-11-15T03:45:43.553Z,57.3
2022-11-15T03:46:44.492Z,57.1
2022-11-15T03:47:45.513Z,56.9
2022-11-15T03:48:46.513Z,56.8
2022-11-15T03:49:47.773Z,57
2022-11-15T03:50:49.761Z,57.1
2022-11-15T03:51:51.574Z,56.5
2022-11-15T03:52:52.992Z,56.7
2022-11-15T03:53:54.601Z,56.8
2022-11-15T03:54:55.589Z,56.9
2022-11-15T03:55:57.881Z,56.8
2022-11-15T03:56:59.913Z,56.6
2022-11-15T03:58:01.998Z,56.4
2022-11-15T03:59:03.634Z,56.2
2022-11-15T04:00:06.735Z,56.2
2022-11-15T04:01:09.116Z,56.4
2022-11-15T04:02:11.153Z,56.4
2022-11-15T04:03:12.733Z,56.5
2022-11-15T04:04:14.693Z,56.4
2022-11-15T04:05:16.672Z,56.2
2022-11-15T04:06:18.677Z,56.1
2022-11-15T04:07:20.890Z,56.1
2022-11-15T04:08:22.633Z,56.3
2022-11-15T04:09:24.579Z,56.6
2022-11-15T04:10:25.734Z,56.8
2022-11-15T04:11:27.734Z,56.6
2022-11-15T04:12:29.733Z,57.3
2022-11-15T04:13:31.884Z,57.7
2022-11-15T04:14:33.653Z,57.8
2022-11-15T04:15:35.582Z,57.9
2022-11-15T04:16:41.015Z,57.9
2022-11-15T04:17:38.522Z,57.8
2022-11-15T04:18:39.579Z,57.5
2022-11-15T04:19:40.495Z,57.2
2022-11-15T04:20:41.533Z,56.7
2022-11-15T04:21:43.033Z,56.5
2022-11-15T04:22:44.754Z,56.9
2022-11-15T04:23:46.734Z,57.3
2022-11-15T04:24:48.818Z,56.7
2022-11-15T04:25:50.578Z,56.9
2022-11-15T04:26:51.756Z,56.8
2022-11-15T04:27:53.913Z,56.4
2022-11-15T04:28:55.723Z,56
2022-11-15T04:29:57.696Z,56
2022-11-15T04:30:59.773Z,56
2022-11-15T04:32:01.701Z,56.1
2022-11-15T04:33:03.479Z,56.5
2022-11-15T04:34:04.539Z,57.2
2022-11-15T04:35:05.615Z,57.6
2022-11-15T04:36:07.554Z,57.9
2022-11-15T04:37:08.594Z,57.8
2022-11-15T04:38:09.654Z,57.7
2022-11-15T04:39:12.413Z,57.6
2022-11-15T04:40:13.642Z,57.4
2022-11-15T04:41:15.814Z,57.1
2022-11-15T04:42:17.668Z,57
2022-11-15T04:43:19.592Z,56.8
2022-11-15T04:44:20.635Z,56.6
2022-11-15T04:45:22.594Z,56.4
2022-11-15T04:46:23.642Z,56.5
2022-11-15T04:47:25.593Z,57.1
2022-11-15T04:48:26.575Z,56.9
2022-11-15T04:49:27.493Z,57.2
2022-11-15T04:50:28.593Z,57.2
2022-11-15T04:51:30.017Z,56.9
2022-11-15T04:52:32.462Z,56.6
2022-11-15T04:53:34.128Z,56.2
2022-11-15T04:54:35.613Z,55.9
2022-11-15T04:55:37.772Z,55.7
2022-11-15T04:56:39.797Z,55.6
2022-11-15T04:57:41.854Z,55.5
2022-11-15T04:58:43.713Z,55.8
2022-11-15T04:59:45.537Z,55.9
2022-11-15T05:00:47.119Z,56
2022-11-15T05:01:49.133Z,56
2022-11-15T05:02:50.860Z,55.7
2022-11-15T05:03:52.593Z,55.6
2022-11-15T05:04:53.693Z,55.5
2022-11-15T05:05:55.953Z,55.4
2022-11-15T05:06:58.782Z,55.1
2022-11-15T05:08:00.672Z,55.6
2022-11-15T05:09:02.679Z,55.7
2022-11-15T05:10:04.773Z,56
2022-11-15T05:11:06.616Z,56
2022-11-15T05:12:07.533Z,55.8
2022-11-15T05:13:08.512Z,55.8
2022-11-15T05:14:09.653Z,55.8
2022-11-15T05:15:11.684Z,55.7
2022-11-15T05:16:13.772Z,55.7
2022-11-15T05:17:15.956Z,55.6
2022-11-15T05:18:22.260Z,55.6
2022-11-15T05:19:19.572Z,55.7
2022-11-15T05:20:21.435Z,55.8
2022-11-15T05:21:22.661Z,56
2022-11-15T05:22:24.632Z,56.2
2022-11-15T05:23:26.641Z,56.4
2022-11-15T05:24:29.353Z,56.5
2022-11-15T05:25:31.573Z,56.5
2022-11-15T05:26:32.574Z,56.4
2022-11-15T05:27:33.593Z,56.3
2022-11-15T05:28:34.792Z,55.4
2022-11-15T05:29:36.953Z,56
2022-11-15T05:30:38.561Z,56.2
2022-11-15T05:31:39.533Z,56.4
2022-11-15T05:32:40.633Z,56.4
2022-11-15T05:33:42.841Z,56.3
2022-11-15T05:34:44.852Z,56.2
2022-11-15T05:35:46.708Z,56.1
2022-11-15T05:36:48.514Z,55.9
2022-11-15T05:37:49.574Z,55.7
2022-11-15T05:38:51.039Z,55.6
2022-11-15T05:39:53.712Z,55.6
2022-11-15T05:40:55.713Z,55.6
2022-11-15T05:41:58.035Z,55.6
2022-11-15T05:42:59.751Z,55.6
2022-11-15T05:44:01.721Z,55.7
2022-11-15T05:45:03.807Z,55.8
2022-11-15T05:46:06.181Z,55.8
2022-11-15T05:47:07.733Z,56
2022-11-15T05:48:09.999Z,56.7
2022-11-15T05:49:11.570Z,57.2
2022-11-15T05:50:12.676Z,57.3
2022-11-15T05:51:14.700Z,57.3
2022-11-15T05:52:16.678Z,57.2
2022-11-15T05:53:18.712Z,57.1
2022-11-15T05:54:20.552Z,57.3
2022-11-15T05:55:21.960Z,57.4
2022-11-15T05:56:23.681Z,57.5
2022-11-15T05:57:25.756Z,57.4
2022-11-15T05:58:27.813Z,57.3
2022-11-15T05:59:29.822Z,57.1
2022-11-15T06:00:31.913Z,57
2022-11-15T06:01:33.772Z,56.7
2022-11-15T06:02:35.885Z,55.9
2022-11-15T06:03:37.596Z,55.8
2022-11-15T06:04:38.491Z,55.4
2022-11-15T06:05:39.713Z,55.2
2022-11-15T06:06:41.754Z,55.2
2022-11-15T06:07:44.433Z,55.3
2022-11-15T06:08:46.781Z,55.4
2022-11-15T06:09:48.961Z,55.5
2022-11-15T06:10:50.795Z,55.7
2022-11-15T06:11:52.793Z,55.9
2022-11-15T06:12:54.554Z,56.2
2022-11-15T06:13:55.654Z,56.2
2022-11-15T06:14:57.712Z,56.2
2022-11-15T06:15:59.757Z,56.1
2022-11-15T06:17:02.629Z,56
2022-11-15T06:18:04.513Z,56
2022-11-15T06:19:07.032Z,55.9
2022-11-15T06:20:08.632Z,55.8
2022-11-15T06:21:09.613Z,55.7
2022-11-15T06:22:11.064Z,55.5
2022-11-15T06:23:12.886Z,55.5
2022-11-15T06:24:14.831Z,55
2022-11-15T06:25:16.813Z,55.6
2022-11-15T06:26:18.617Z,56.2
2022-11-15T06:27:19.633Z,56.5
2022-11-15T06:28:21.979Z,56.7
2022-11-15T06:29:23.674Z,56.7
2022-11-15T06:30:25.673Z,56.6
2022-11-15T06:31:28.253Z,56.4
2022-11-15T06:32:29.671Z,56.1
2022-11-15T06:33:33.101Z,55.9
2022-11-15T06:34:34.933Z,55.7
2022-11-15T06:35:36.618Z,55
2022-11-15T06:36:37.637Z,55.5
2022-11-15T06:37:38.581Z,55.6
2022-11-15T06:38:39.673Z,56
2022-11-15T06:39:42.994Z,56.5
2022-11-15T06:40:44.821Z,56.9
2022-11-15T06:41:46.972Z,57.1
2022-11-15T06:42:48.581Z,57.1
2022-11-15T06:43:49.676Z,57.2
2022-11-15T06:44:50.614Z,57.5
2022-11-15T06:45:51.762Z,57.5
2022-11-15T06:46:53.853Z,57.4
2022-11-15T06:47:55.655Z,57.5
2022-11-15T06:48:58.493Z,57.3
2022-11-15T06:49:59.634Z,57.1
2022-11-15T06:51:00.654Z,57
2022-11-15T06:52:02.174Z,56.4
2022-11-15T06:53:04.175Z,56.7
2022-11-15T06:54:06.553Z,57
2022-11-15T06:55:08.433Z,57.2
2022-11-15T06:56:09.682Z,57.5
2022-11-15T06:57:11.943Z,57.9
2022-11-15T06:58:13.913Z,58.3
2022-11-15T06:59:15.724Z,58.6
2022-11-15T07:00:17.847Z,58.8
2022-11-15T07:01:19.787Z,58.8
2022-11-15T07:02:21.664Z,59.2
2022-11-15T07:03:22.774Z,59.5
2022-11-15T07:04:24.625Z,59.8
2022-11-15T07:05:26.273Z,59.7
2022-11-15T07:06:28.093Z,59.4
2022-11-15T07:07:30.354Z,58.9
2022-11-15T07:08:31.774Z,58.1
2022-11-15T07:09:34.013Z,57.9
2022-11-15T07:10:35.962Z,57.4
2022-11-15T07:11:38.154Z,57.2
2022-11-15T07:12:41.949Z,57.4
2022-11-15T07:13:44.393Z,57.6
2022-11-15T07:14:46.555Z,57.6
2022-11-15T07:15:48.094Z,57.6
2022-11-15T07:16:49.854Z,57.5
2022-11-15T07:17:51.916Z,57.5
2022-11-15T07:18:54.133Z,57.2
2022-11-15T07:19:55.618Z,56.3
2022-11-15T07:20:56.794Z,56
2022-11-15T07:21:58.667Z,56.5
2022-11-15T07:22:59.774Z,56.6
2022-11-15T07:24:01.840Z,56.4
2022-11-15T07:25:04.254Z,56.5
2022-11-15T07:26:07.054Z,56.5
2022-11-15T07:27:08.774Z,56.7
2022-11-15T07:28:10.654Z,56.9
2022-11-15T07:29:11.750Z,57
2022-11-15T07:30:15.714Z,57
2022-11-15T07:31:16.893Z,56.6
2022-11-15T07:32:18.621Z,56.6
2022-11-15T07:33:19.694Z,56.6
2022-11-15T07:34:21.694Z,56.4
2022-11-15T07:35:23.877Z,56.5
2022-11-15T07:36:26.875Z,56.7
2022-11-15T07:37:28.935Z,56.7
2022-11-15T07:38:32.075Z,56.7
2022-11-15T07:39:33.819Z,56.7
2022-11-15T07:40:36.134Z,56.6
2022-11-15T07:41:38.214Z,56.5
2022-11-15T07:42:39.878Z,56.4
2022-11-15T07:43:41.755Z,56.4
2022-11-15T07:44:43.951Z,56.3
2022-11-15T07:45:46.485Z,56.1
2022-11-15T07:46:48.431Z,55.8
2022-11-15T07:47:49.676Z,55.7
2022-11-15T07:48:50.714Z,55.9
2022-11-15T07:49:53.091Z,55.8
2022-11-15T07:50:54.894Z,56.1
2022-11-15T07:51:56.836Z,55.8
2022-11-15T07:52:58.874Z,55.4
2022-11-15T07:54:00.815Z,54.8
2022-11-15T07:55:02.815Z,54.2
2022-11-15T07:56:05.214Z,53.3
2022-11-15T07:57:07.859Z,53.5
2022-11-15T07:58:08.744Z,53.5
2022-11-15T07:59:10.641Z,52.4
2022-11-15T08:00:11.618Z,51.8
2022-11-15T08:01:13.238Z,51.3
2022-11-15T08:02:14.698Z,50.4
2022-11-15T08:03:15.686Z,49.8
2022-11-15T08:04:16.655Z,49.4
2022-11-15T08:05:17.631Z,49.4
2022-11-15T08:06:18.991Z,49.8
2022-11-15T08:07:21.181Z,49.8
2022-11-15T08:08:22.715Z,49.5
2022-11-15T08:09:25.159Z,49.2
2022-11-15T08:10:26.815Z,48.8
2022-11-15T08:11:28.834Z,49
2022-11-15T08:12:30.904Z,49
2022-11-15T08:13:33.073Z,49.1
2022-11-15T08:14:33.738Z,49.1
2022-11-15T08:15:35.655Z,49.1
2022-11-15T08:16:36.708Z,49.2
2022-11-15T08:17:37.735Z,49.2
2022-11-15T08:18:39.932Z,49.2
2022-11-15T08:19:42.856Z,49.4
2022-11-15T08:20:44.939Z,49.3
2022-11-15T08:21:47.017Z,49.7
2022-11-15T08:22:48.814Z,49.7
2022-11-15T08:23:50.674Z,50.2
2022-11-15T08:24:52.434Z,50.4
2022-11-15T08:25:53.816Z,50.4
2022-11-15T08:26:55.846Z,50.8
2022-11-15T08:27:57.854Z,50.5
2022-11-15T08:28:59.739Z,50.6
2022-11-15T08:30:01.855Z,50.8
2022-11-15T08:31:03.926Z,50.8
2022-11-15T08:32:05.788Z,50.7
2022-11-15T08:33:07.653Z,50.5
2022-11-15T08:34:09.232Z,50.5
2022-11-15T08:35:10.654Z,50.7
2022-11-15T08:36:11.720Z,51
2022-11-15T08:37:13.923Z,50.6
2022-11-15T08:38:16.396Z,51.1
2022-11-15T08:39:17.923Z,51.2
2022-11-15T08:40:20.495Z,51.1
2022-11-15T08:41:21.855Z,50.8
2022-11-15T08:42:23.901Z,50.6
2022-11-15T08:43:27.095Z,50.2
2022-11-15T08:44:29.496Z,49.9
2022-11-15T08:45:30.754Z,49.7
2022-11-15T08:46:32.634Z,49.2
2022-11-15T08:47:34.088Z,49.2
2022-11-15T08:48:35.982Z,48.8
2022-11-15T08:49:38.054Z,48.6
2022-11-15T08:50:39.677Z,48.2
2022-11-15T08:51:40.763Z,48.2
2022-11-15T08:52:42.887Z,48.2
2022-11-15T08:53:44.855Z,47.7
2022-11-15T08:54:46.768Z,47.6
2022-11-15T08:55:49.495Z,47.1
2022-11-15T08:56:50.660Z,46.3
2022-11-15T08:57:51.818Z,45.8
2022-11-15T08:58:54.495Z,45.6
2022-11-15T08:59:56.082Z,45.5
2022-11-15T09:00:57.835Z,45.2
2022-11-15T09:01:59.896Z,45
2022-11-15T09:03:01.877Z,45
2022-11-15T09:04:03.920Z,45
2022-11-15T09:05:05.873Z,45
2022-11-15T09:06:07.744Z,44.9
2022-11-15T09:07:09.753Z,45.4
2022-11-15T09:08:32.716Z,45.5
2022-11-15T09:09:12.632Z,45.6
2022-11-15T09:10:14.143Z,46
2022-11-15T09:11:15.917Z,45.7
2022-11-15T09:12:17.696Z,45.2
2022-11-15T09:13:18.654Z,45.3
2022-11-15T09:14:19.842Z,44.9
2022-11-15T09:15:21.775Z,44.6
2022-11-15T09:16:23.848Z,44.4
2022-11-15T09:17:26.475Z,44.4
2022-11-15T09:18:27.822Z,44.3
2022-11-15T09:19:29.834Z,44.2
2022-11-15T09:20:31.876Z,44.1
2022-11-15T09:21:34.315Z,43.8
2022-11-15T09:22:36.036Z,43.6
2022-11-15T09:23:38.061Z,43.3
2022-11-15T09:24:39.755Z,43
2022-11-15T09:25:41.755Z,42.4
2022-11-15T09:26:43.834Z,42.1
2022-11-15T09:27:45.955Z,41.7
2022-11-15T09:28:48.375Z,41.2
2022-11-15T09:29:49.895Z,41.9
2022-11-15T09:30:51.839Z,42.3
2022-11-15T09:31:53.765Z,42.3
2022-11-15T09:32:56.115Z,42.2
2022-11-15T09:33:58.853Z,41.7
2022-11-15T09:35:00.901Z,41.6
2022-11-15T09:36:04.076Z,41.5
2022-11-15T09:37:05.959Z,41.8
2022-11-15T09:38:07.795Z,40.5
2022-11-15T09:39:10.255Z,40.8
2022-11-15T09:40:12.595Z,40.8
2022-11-15T09:41:13.900Z,41.1
2022-11-15T09:42:15.935Z,41.6
2022-11-15T09:43:18.015Z,41.7
2022-11-15T09:44:25.218Z,41.4
2022-11-15T09:45:21.948Z,41.7
2022-11-15T09:46:23.818Z,41.7
2022-11-15T09:47:25.835Z,41.3
2022-11-15T09:48:27.895Z,41
2022-11-15T09:49:29.936Z,41.1
2022-11-15T09:50:31.755Z,40.6
2022-11-15T09:51:34.287Z,40.1
2022-11-15T09:52:36.455Z,40
2022-11-15T09:54:13.921Z,39.5
2022-11-15T09:54:53.147Z,39.5
2022-11-15T09:55:42.676Z,39
2022-11-15T09:56:44.822Z,38.6
2022-11-15T09:57:46.940Z,38
2022-11-15T09:58:48.854Z,37.3
2022-11-15T09:59:51.874Z,36.8
2022-11-15T10:00:54.007Z,36
2022-11-15T10:01:56.363Z,35.4
2022-11-15T10:02:57.956Z,35.7
2022-11-15T10:03:59.815Z,35.3
2022-11-15T10:05:01.977Z,35.6
2022-11-15T10:06:03.990Z,35.5
2022-11-15T10:07:05.928Z,35.2
2022-11-15T10:08:07.837Z,34
2022-11-15T10:09:09.886Z,33.2
2022-11-15T10:10:11.931Z,32.8
2022-11-15T10:12:15.854Z,33.3
2022-11-15T10:13:17.768Z,33.3
2022-11-15T10:14:18.740Z,33
2022-11-15T10:15:19.823Z,32.1
2022-11-15T10:16:22.315Z,32.1
2022-11-15T10:17:23.687Z,31.8
2022-11-15T10:18:24.715Z,32
2022-11-15T10:19:26.193Z,31.4
2022-11-15T10:20:28.120Z,31.1
2022-11-15T10:21:29.678Z,30.7
2022-11-15T10:22:31.755Z,30.9
2022-11-15T10:23:32.795Z,30.9
2022-11-15T10:24:34.900Z,30.7
2022-11-15T10:25:37.322Z,31
2022-11-15T10:26:38.894Z,31
2022-11-15T10:27:40.862Z,31.1
2022-11-15T10:28:42.953Z,30.7
2022-11-15T10:29:44.917Z,29.8
2022-11-15T10:30:46.955Z,29.6
2022-11-15T10:31:49.516Z,29.9
2022-11-15T10:32:51.615Z,29.9
2022-11-15T10:33:53.303Z,30
2022-11-15T10:34:54.764Z,29.7
2022-11-15T10:35:58.941Z,29.7
2022-11-15T10:37:00.955Z,29.5
2022-11-15T10:38:02.954Z,29.1
2022-11-15T10:39:05.674Z,29.2
2022-11-15T10:40:12.114Z,29.5
2022-11-15T10:41:14.014Z,28.9
2022-11-15T10:42:17.854Z,28.7
2022-11-15T10:43:17.875Z,28.8
2022-11-15T10:44:20.035Z,28.9
2022-11-15T10:45:22.016Z,29.3
2022-11-15T10:46:45.461Z,29.3
2022-11-15T10:47:25.903Z,29.2
2022-11-15T10:48:27.934Z,29.2
2022-11-15T10:49:29.859Z,29
2022-11-15T10:50:31.782Z,29.2
2022-11-15T10:51:32.843Z,29.3
2022-11-15T10:52:34.762Z,29.2
2022-11-15T10:53:35.814Z,29.3
2022-11-15T10:54:38.375Z,29.5
2022-11-15T10:55:39.935Z,29.3
2022-11-15T10:56:41.896Z,29.6
2022-11-15T10:57:43.976Z,29.9
2022-11-15T10:58:46.115Z,30
2022-11-15T10:59:47.768Z,29.9
2022-11-15T11:00:48.734Z,30
2022-11-15T11:01:49.750Z,30.8
2022-11-15T11:02:51.056Z,30.5
2022-11-15T11:03:53.074Z,30.5
2022-11-15T11:04:54.734Z,30.1
2022-11-15T11:05:55.774Z,29.8
2022-11-15T11:06:56.845Z,30.2
2022-11-15T11:07:59.354Z,30.6
2022-11-15T11:09:01.174Z,31.9
2022-11-15T11:10:03.567Z,32.1
2022-11-15T11:11:05.265Z,32.6
2022-11-15T11:12:07.254Z,33.2
2022-11-15T11:13:09.777Z,32.6
2022-11-15T11:14:10.915Z,32.4
2022-11-15T11:15:13.575Z,32.3
2022-11-15T11:16:14.824Z,32.5
2022-11-15T11:17:17.175Z,32.4
2022-11-15T11:18:18.973Z,32.2
2022-11-15T11:19:20.796Z,32.9
2022-11-15T11:20:22.880Z,32.9
2022-11-15T11:21:30.451Z,32.9
2022-11-15T11:22:26.880Z,32.6
2022-11-15T11:23:29.135Z,32.4
2022-11-15T11:24:33.858Z,32.2
2022-11-15T11:25:36.049Z,32.5
2022-11-15T11:26:37.978Z,32.6
2022-11-15T11:27:41.073Z,32.4
2022-11-15T11:28:43.155Z,32.5
2022-11-15T11:29:44.854Z,32.4
2022-11-15T11:30:46.979Z,32
2022-11-15T11:31:48.834Z,31.3
2022-11-15T11:32:54.935Z,31.5
2022-11-15T11:33:53.533Z,31.6
2022-11-15T11:34:54.735Z,32.2
2022-11-15T11:35:55.793Z,31.5
2022-11-15T11:36:56.874Z,31.3
2022-11-15T11:37:59.080Z,30.8
2022-11-15T11:39:01.533Z,30.5
2022-11-15T11:40:07.586Z,29.9
2022-11-15T11:41:04.956Z,29.9
2022-11-15T11:42:07.662Z,29.8
2022-11-15T11:43:08.895Z,29.6
2022-11-15T11:44:10.794Z,29.8
2022-11-15T11:45:12.475Z,30.1
2022-11-15T11:46:13.994Z,30.1
2022-11-15T11:47:16.094Z,30.2
2022-11-15T11:48:18.315Z,29.9
2022-11-15T11:49:19.968Z,29.9
2022-11-15T11:50:21.988Z,29.9
2022-11-15T11:51:24.416Z,29.8
2022-11-15T11:52:25.835Z,29.6
2022-11-15T11:53:27.962Z,29.6
2022-11-15T11:54:29.993Z,29.1
2022-11-15T11:55:32.253Z,28.7
2022-11-15T11:56:34.155Z,29.3
2022-11-15T11:57:37.094Z,29.3
2022-11-15T11:58:39.077Z,29.5
2022-11-15T11:59:41.248Z,29.6
2022-11-15T12:00:42.954Z,29.6
2022-11-15T12:01:45.090Z,29.4
2022-11-15T12:02:47.011Z,29.6
2022-11-15T12:03:48.873Z,29.9
2022-11-15T12:04:50.820Z,29.8
2022-11-15T12:05:53.363Z,29.2
2022-11-15T12:06:54.850Z,29.4
2022-11-15T12:07:56.054Z,29.2
2022-11-15T12:08:57.816Z,29.6
2022-11-15T12:09:58.915Z,29.5
2022-11-15T12:11:02.027Z,29.2
2022-11-15T12:12:04.234Z,29.1
2022-11-15T12:13:05.953Z,29.1
2022-11-15T12:14:08.072Z,29
2022-11-15T12:15:09.908Z,28.7
2022-11-15T12:16:11.901Z,28.8
2022-11-15T12:17:14.156Z,28.8
2022-11-15T12:18:15.974Z,28.7
2022-11-15T12:19:17.938Z,28.3
2022-11-15T12:20:19.916Z,28
2022-11-15T12:21:27.125Z,28.1
2022-11-15T12:22:24.423Z,27.9
2022-11-15T12:23:26.575Z,27.5
2022-11-15T12:24:27.794Z,27.1
2022-11-15T12:25:28.954Z,26.8
2022-11-15T12:26:31.335Z,26.8
2022-11-15T12:27:33.773Z,27.2
2022-11-15T12:28:35.277Z,27.1
2022-11-15T12:29:37.677Z,27.3
2022-11-15T12:30:39.214Z,27.1
2022-11-15T12:31:41.000Z,26.9
2022-11-15T12:32:42.983Z,26.8
2022-11-15T12:33:45.015Z,26.6
2022-11-15T12:34:46.938Z,26.6
2022-11-15T12:35:48.951Z,26.8
2022-11-15T12:36:50.997Z,26.6
2022-11-15T12:37:53.053Z,26.4
2022-11-15T12:38:54.874Z,26.7
2022-11-15T12:40:00.955Z,27.2
2022-11-15T12:40:58.922Z,27.1
2022-11-15T12:42:01.236Z,27.2
2022-11-15T12:43:02.890Z,27.2
2022-11-15T12:44:04.979Z,27.1
2022-11-15T12:45:07.741Z,27.2
2022-11-15T12:46:08.923Z,27.3
2022-11-15T12:47:10.831Z,27.3
2022-11-15T12:48:11.834Z,27.4
2022-11-15T12:49:12.745Z,27.5
2022-11-15T12:50:14.553Z,27.2
2022-11-15T12:51:16.051Z,27.2
2022-11-15T12:52:17.833Z,27.5
2022-11-15T12:53:18.813Z,27.5
2022-11-15T12:54:21.114Z,27.8
2022-11-15T12:55:24.344Z,27.5
2022-11-15T12:56:26.134Z,27.7
2022-11-15T12:57:27.964Z,27.5
2022-11-15T12:58:30.523Z,27.5
2022-11-15T12:59:31.835Z,26.9
2022-11-15T13:00:33.213Z,26.5
2022-11-15T13:01:35.262Z,26.5
2022-11-15T13:02:37.753Z,26.2
2022-11-15T13:03:38.994Z,26.5
2022-11-15T13:04:40.974Z,26.9
2022-11-15T13:05:43.193Z,27.1
2022-11-15T13:06:44.837Z,27.4
2022-11-15T13:07:45.801Z,27.8
2022-11-15T13:08:46.766Z,27.6
2022-11-15T13:09:48.124Z,27.8
2022-11-15T13:10:50.013Z,27.8
2022-11-15T13:11:51.943Z,27.8
2022-11-15T13:12:54.069Z,28.1
2022-11-15T13:13:56.697Z,28.1
2022-11-15T13:14:58.716Z,28.6
2022-11-15T13:16:00.017Z,28.3
2022-11-15T13:17:02.036Z,28.3
2022-11-15T13:18:04.075Z,28.6
2022-11-15T13:19:06.222Z,28.7
2022-11-15T13:20:07.953Z,28.4
2022-11-15T13:21:09.894Z,28.1
2022-11-15T13:22:11.877Z,28.1
2022-11-15T13:23:14.487Z,28.3
2022-11-15T13:24:16.682Z,28.6
2022-11-15T13:25:18.594Z,28.7
2022-11-15T13:26:19.998Z,28.7
2022-11-15T13:27:22.174Z,28.8
2022-11-15T13:28:24.534Z,28.7
2022-11-15T13:29:26.023Z,28.9
2022-11-15T13:30:27.893Z,28.6
2022-11-15T13:31:30.014Z,28.5
2022-11-15T13:32:32.553Z,28.4
2022-11-15T13:33:36.104Z,28.7
2022-11-15T13:34:52.772Z,29
2022-11-15T13:35:37.922Z,29.2
2022-11-15T13:36:39.994Z,29.3
2022-11-15T13:37:42.220Z,29.5
2022-11-15T13:38:44.765Z,29.8
2022-11-15T13:39:45.874Z,29.8
2022-11-15T13:40:47.917Z,29.9
2022-11-15T13:41:49.930Z,30.3
2022-11-15T13:42:51.874Z,30.9
2022-11-15T13:43:52.759Z,30.8
2022-11-15T13:44:54.141Z,30.9
2022-11-15T13:45:55.856Z,31.1
2022-11-15T13:46:56.797Z,31.4
2022-11-15T13:47:57.914Z,31.5
2022-11-15T13:48:59.999Z,31.3
2022-11-15T13:50:02.352Z,30.9
2022-11-15T13:51:04.093Z,30.8